sensor_id;sensor_type;location;lat;lon;timestamp;P1;durP1;ratioP1;P2;durP2;ratioP2
3918;SDS011;1974;48.670;8.994;2023-08-30T00:01:29;3.50;;;2.90;;
3918;SDS011;1974;48.670;8.994;2023-08-30T00:03:56;2.80;;;2.37;;
3918;SDS011;1974;48.670;8.994;2023-08-30T00:06:23;3.13;;;2.00;;
3918;SDS011;1974;48.670;8.994;2023-08-30T00:08:50;2.80;;;2.40;;
3918;SDS011;1974;48.670;8.994;2023-08-30T00:11:15;3.77;;;2.47;;
3918;SDS011;1974;48.670;8.994;2023-08-30T00:13:42;3.03;;;2.60;;
3918;SDS011;1974;48.670;8.994;2023-08-30T00:16:10;2.77;;;2.57;;
3918;SDS011;1974;48.670;8.994;2023-08-30T00:18:38;5.30;;;2.83;;
3918;SDS011;1974;48.670;8.994;2023-08-30T00:21:04;3.00;;;2.27;;
3918;SDS011;1974;48.670;8.994;2023-08-30T00:23:31;3.30;;;2.80;;
3918;SDS011;1974;48.670;8.994;2023-08-30T00:25:58;3.43;;;3.13;;
3918;SDS011;1974;48.670;8.994;2023-08-30T00:28:25;3.00;;;2.70;;
3918;SDS011;1974;48.670;8.994;2023-08-30T00:30:52;4.33;;;3.10;;
3918;SDS011;1974;48.670;8.994;2023-08-30T00:33:21;4.30;;;3.00;;
3918;SDS011;1974;48.670;8.994;2023-08-30T00:35:54;3.77;;;2.07;;
3918;SDS011;1974;48.670;8.994;2023-08-30T00:38:22;2.63;;;2.43;;
3918;SDS011;1974;48.670;8.994;2023-08-30T00:40:48;2.50;;;2.13;;
3918;SDS011;1974;48.670;8.994;2023-08-30T00:43:14;2.60;;;2.40;;
3918;SDS011;1974;48.670;8.994;2023-08-30T00:45:41;3.57;;;2.67;;
3918;SDS011;1974;48.670;8.994;2023-08-30T00:48:08;3.00;;;2.70;;
3918;SDS011;1974;48.670;8.994;2023-08-30T00:50:36;5.13;;;3.10;;
3918;SDS011;1974;48.670;8.994;2023-08-30T00:53:03;3.83;;;2.70;;
3918;SDS011;1974;48.670;8.994;2023-08-30T00:55:31;5.53;;;3.83;;
3918;SDS011;1974;48.670;8.994;2023-08-30T00:57:59;3.13;;;2.60;;
3918;SDS011;1974;48.670;8.994;2023-08-30T01:00:27;4.50;;;3.33;;
3918;SDS011;1974;48.670;8.994;2023-08-30T01:02:54;3.53;;;3.23;;
3918;SDS011;1974;48.670;8.994;2023-08-30T01:05:21;4.00;;;2.63;;
3918;SDS011;1974;48.670;8.994;2023-08-30T01:07:49;4.87;;;3.17;;
3918;SDS011;1974;48.670;8.994;2023-08-30T01:10:16;3.40;;;2.33;;
3918;SDS011;1974;48.670;8.994;2023-08-30T01:12:45;5.77;;;3.90;;
3918;SDS011;1974;48.670;8.994;2023-08-30T01:15:15;5.33;;;3.80;;
3918;SDS011;1974;48.670;8.994;2023-08-30T01:17:44;4.83;;;3.63;;
3918;SDS011;1974;48.670;8.994;2023-08-30T01:20:14;3.83;;;2.80;;
3918;SDS011;1974;48.670;8.994;2023-08-30T01:22:45;5.30;;;3.57;;
3918;SDS011;1974;48.670;8.994;2023-08-30T01:25:30;5.97;;;3.47;;
3918;SDS011;1974;48.670;8.994;2023-08-30T01:28:04;5.13;;;3.23;;
3918;SDS011;1974;48.670;8.994;2023-08-30T01:30:31;5.20;;;3.80;;
3918;SDS011;1974;48.670;8.994;2023-08-30T01:32:59;5.13;;;3.57;;
3918;SDS011;1974;48.670;8.994;2023-08-30T01:35:27;3.77;;;3.00;;
3918;SDS011;1974;48.670;8.994;2023-08-30T01:37:57;2.73;;;2.50;;
3918;SDS011;1974;48.670;8.994;2023-08-30T01:40:27;5.00;;;3.60;;
3918;SDS011;1974;48.670;8.994;2023-08-30T01:42:56;4.37;;;3.30;;
3918;SDS011;1974;48.670;8.994;2023-08-30T01:45:26;5.47;;;3.73;;
3918;SDS011;1974;48.670;8.994;2023-08-30T01:47:54;4.07;;;2.90;;
3918;SDS011;1974;48.670;8.994;2023-08-30T01:50:23;5.07;;;3.10;;
3918;SDS011;1974;48.670;8.994;2023-08-30T01:52:51;6.00;;;3.27;;
3918;SDS011;1974;48.670;8.994;2023-08-30T01:55:19;7.30;;;3.60;;
3918;SDS011;1974;48.670;8.994;2023-08-30T01:57:47;4.00;;;2.63;;
3918;SDS011;1974;48.670;8.994;2023-08-30T02:00:14;4.60;;;3.33;;
3918;SDS011;1974;48.670;8.994;2023-08-30T02:02:43;4.50;;;2.53;;
3918;SDS011;1974;48.670;8.994;2023-08-30T02:05:09;4.83;;;3.00;;
3918;SDS011;1974;48.670;8.994;2023-08-30T02:07:39;3.40;;;2.63;;
3918;SDS011;1974;48.670;8.994;2023-08-30T02:10:14;2.50;;;2.20;;
3918;SDS011;1974;48.670;8.994;2023-08-30T02:12:46;4.80;;;3.20;;
3918;SDS011;1974;48.670;8.994;2023-08-30T02:15:15;4.73;;;3.20;;
3918;SDS011;1974;48.670;8.994;2023-08-30T02:17:45;3.43;;;2.67;;
3918;SDS011;1974;48.670;8.994;2023-08-30T02:20:12;3.03;;;2.30;;
3918;SDS011;1974;48.670;8.994;2023-08-30T02:22:39;5.90;;;3.20;;
3918;SDS011;1974;48.670;8.994;2023-08-30T02:25:06;4.60;;;3.00;;
3918;SDS011;1974;48.670;8.994;2023-08-30T02:27:33;5.63;;;3.23;;
3918;SDS011;1974;48.670;8.994;2023-08-30T02:30:00;4.40;;;3.03;;
3918;SDS011;1974;48.670;8.994;2023-08-30T02:32:27;2.90;;;2.23;;
3918;SDS011;1974;48.670;8.994;2023-08-30T02:34:56;5.00;;;3.50;;
3918;SDS011;1974;48.670;8.994;2023-08-30T02:37:23;5.60;;;3.47;;
3918;SDS011;1974;48.670;8.994;2023-08-30T02:39:49;7.70;;;4.17;;
3918;SDS011;1974;48.670;8.994;2023-08-30T02:42:16;4.13;;;3.23;;
3918;SDS011;1974;48.670;8.994;2023-08-30T02:44:43;4.07;;;2.67;;
3918;SDS011;1974;48.670;8.994;2023-08-30T02:47:10;5.60;;;3.33;;
3918;SDS011;1974;48.670;8.994;2023-08-30T02:49:36;5.40;;;3.20;;
3918;SDS011;1974;48.670;8.994;2023-08-30T02:52:05;3.87;;;2.33;;
3918;SDS011;1974;48.670;8.994;2023-08-30T02:54:32;4.37;;;2.60;;
3918;SDS011;1974;48.670;8.994;2023-08-30T02:56:59;4.23;;;2.83;;
3918;SDS011;1974;48.670;8.994;2023-08-30T02:59:26;8.43;;;3.40;;
3918;SDS011;1974;48.670;8.994;2023-08-30T03:01:53;6.27;;;3.37;;
3918;SDS011;1974;48.670;8.994;2023-08-30T03:04:19;6.43;;;3.60;;
3918;SDS011;1974;48.670;8.994;2023-08-30T03:06:46;2.60;;;2.30;;
3918;SDS011;1974;48.670;8.994;2023-08-30T03:09:14;5.57;;;3.87;;
3918;SDS011;1974;48.670;8.994;2023-08-30T03:11:41;3.30;;;2.90;;
3918;SDS011;1974;48.670;8.994;2023-08-30T03:14:08;4.53;;;3.50;;
3918;SDS011;1974;48.670;8.994;2023-08-30T03:16:35;4.60;;;3.00;;
3918;SDS011;1974;48.670;8.994;2023-08-30T03:19:01;3.70;;;2.80;;
3918;SDS011;1974;48.670;8.994;2023-08-30T03:21:28;2.23;;;1.87;;
3918;SDS011;1974;48.670;8.994;2023-08-30T03:23:55;3.40;;;2.20;;
3918;SDS011;1974;48.670;8.994;2023-08-30T03:26:23;2.73;;;2.33;;
3918;SDS011;1974;48.670;8.994;2023-08-30T03:28:50;7.17;;;3.43;;
3918;SDS011;1974;48.670;8.994;2023-08-30T03:31:17;3.67;;;2.20;;
3918;SDS011;1974;48.670;8.994;2023-08-30T03:33:45;3.30;;;2.43;;
3918;SDS011;1974;48.670;8.994;2023-08-30T03:36:13;4.50;;;2.63;;
3918;SDS011;1974;48.670;8.994;2023-08-30T03:38:41;3.03;;;2.20;;
3918;SDS011;1974;48.670;8.994;2023-08-30T03:41:08;5.23;;;3.10;;
3918;SDS011;1974;48.670;8.994;2023-08-30T03:43:37;3.90;;;2.53;;
3918;SDS011;1974;48.670;8.994;2023-08-30T03:46:04;2.20;;;2.03;;
3918;SDS011;1974;48.670;8.994;2023-08-30T03:48:31;4.00;;;2.70;;
3918;SDS011;1974;48.670;8.994;2023-08-30T03:50:58;4.77;;;3.10;;
3918;SDS011;1974;48.670;8.994;2023-08-30T03:53:25;3.20;;;2.30;;
3918;SDS011;1974;48.670;8.994;2023-08-30T03:55:52;2.63;;;2.43;;
3918;SDS011;1974;48.670;8.994;2023-08-30T03:58:19;6.03;;;3.17;;
3918;SDS011;1974;48.670;8.994;2023-08-30T04:00:47;3.83;;;2.80;;
3918;SDS011;1974;48.670;8.994;2023-08-30T04:03:14;4.57;;;2.73;;
3918;SDS011;1974;48.670;8.994;2023-08-30T04:05:41;3.93;;;2.90;;
3918;SDS011;1974;48.670;8.994;2023-08-30T04:08:08;3.57;;;2.07;;
3918;SDS011;1974;48.670;8.994;2023-08-30T04:10:35;3.03;;;2.73;;
3918;SDS011;1974;48.670;8.994;2023-08-30T04:13:03;6.60;;;3.00;;
3918;SDS011;1974;48.670;8.994;2023-08-30T04:15:32;2.87;;;2.40;;
3918;SDS011;1974;48.670;8.994;2023-08-30T04:18:00;3.87;;;3.17;;
3918;SDS011;1974;48.670;8.994;2023-08-30T04:20:27;4.93;;;3.00;;
3918;SDS011;1974;48.670;8.994;2023-08-30T04:22:53;3.40;;;2.50;;
3918;SDS011;1974;48.670;8.994;2023-08-30T04:25:21;2.63;;;2.03;;
3918;SDS011;1974;48.670;8.994;2023-08-30T04:27:48;3.03;;;2.70;;
3918;SDS011;1974;48.670;8.994;2023-08-30T04:30:15;6.27;;;2.63;;
3918;SDS011;1974;48.670;8.994;2023-08-30T04:32:42;2.60;;;2.40;;
3918;SDS011;1974;48.670;8.994;2023-08-30T04:35:10;8.63;;;2.57;;
3918;SDS011;1974;48.670;8.994;2023-08-30T04:37:37;4.00;;;2.60;;
3918;SDS011;1974;48.670;8.994;2023-08-30T04:40:04;10.80;;;2.40;;
3918;SDS011;1974;48.670;8.994;2023-08-30T04:42:33;6.93;;;4.00;;
3918;SDS011;1974;48.670;8.994;2023-08-30T04:44:59;3.50;;;2.77;;
3918;SDS011;1974;48.670;8.994;2023-08-30T04:47:27;2.30;;;2.10;;
3918;SDS011;1974;48.670;8.994;2023-08-30T04:49:54;4.73;;;2.33;;
3918;SDS011;1974;48.670;8.994;2023-08-30T04:52:22;4.07;;;3.07;;
3918;SDS011;1974;48.670;8.994;2023-08-30T04:54:49;5.50;;;3.67;;
3918;SDS011;1974;48.670;8.994;2023-08-30T04:57:16;5.23;;;3.03;;
3918;SDS011;1974;48.670;8.994;2023-08-30T04:59:43;4.13;;;3.20;;
3918;SDS011;1974;48.670;8.994;2023-08-30T05:02:11;5.40;;;2.67;;
3918;SDS011;1974;48.670;8.994;2023-08-30T05:04:38;3.77;;;2.57;;
3918;SDS011;1974;48.670;8.994;2023-08-30T05:07:04;4.97;;;2.97;;
3918;SDS011;1974;48.670;8.994;2023-08-30T05:09:33;4.60;;;2.57;;
3918;SDS011;1974;48.670;8.994;2023-08-30T05:12:00;5.13;;;2.73;;
3918;SDS011;1974;48.670;8.994;2023-08-30T05:14:27;2.77;;;2.23;;
3918;SDS011;1974;48.670;8.994;2023-08-30T05:16:54;4.13;;;2.83;;
3918;SDS011;1974;48.670;8.994;2023-08-30T05:19:20;2.93;;;2.27;;
3918;SDS011;1974;48.670;8.994;2023-08-30T05:21:47;4.43;;;2.77;;
3918;SDS011;1974;48.670;8.994;2023-08-30T05:24:16;5.43;;;2.97;;
3918;SDS011;1974;48.670;8.994;2023-08-30T05:26:44;3.10;;;2.80;;
3918;SDS011;1974;48.670;8.994;2023-08-30T05:29:12;5.23;;;2.17;;
3918;SDS011;1974;48.670;8.994;2023-08-30T05:31:38;2.60;;;2.40;;
3918;SDS011;1974;48.670;8.994;2023-08-30T05:34:05;3.10;;;2.67;;
3918;SDS011;1974;48.670;8.994;2023-08-30T05:36:32;2.63;;;2.40;;
3918;SDS011;1974;48.670;8.994;2023-08-30T05:38:59;6.17;;;3.10;;
3918;SDS011;1974;48.670;8.994;2023-08-30T05:41:25;3.67;;;2.70;;
3918;SDS011;1974;48.670;8.994;2023-08-30T05:43:53;2.60;;;2.40;;
3918;SDS011;1974;48.670;8.994;2023-08-30T05:46:20;5.40;;;3.03;;
3918;SDS011;1974;48.670;8.994;2023-08-30T05:48:47;4.13;;;2.20;;
3918;SDS011;1974;48.670;8.994;2023-08-30T05:51:14;5.90;;;3.40;;
3918;SDS011;1974;48.670;8.994;2023-08-30T05:53:41;4.03;;;3.17;;
3918;SDS011;1974;48.670;8.994;2023-08-30T05:56:08;4.17;;;2.20;;
3918;SDS011;1974;48.670;8.994;2023-08-30T05:58:34;3.23;;;2.93;;
3918;SDS011;1974;48.670;8.994;2023-08-30T06:01:04;3.63;;;2.27;;
3918;SDS011;1974;48.670;8.994;2023-08-30T06:03:32;4.90;;;3.47;;
3918;SDS011;1974;48.670;8.994;2023-08-30T06:05:59;3.90;;;2.40;;
3918;SDS011;1974;48.670;8.994;2023-08-30T06:08:26;4.13;;;2.93;;
3918;SDS011;1974;48.670;8.994;2023-08-30T06:10:53;2.43;;;2.23;;
3918;SDS011;1974;48.670;8.994;2023-08-30T06:13:20;2.87;;;2.43;;
3918;SDS011;1974;48.670;8.994;2023-08-30T06:15:49;2.80;;;2.40;;
3918;SDS011;1974;48.670;8.994;2023-08-30T06:18:18;5.93;;;3.20;;
3918;SDS011;1974;48.670;8.994;2023-08-30T06:20:45;2.20;;;2.00;;
3918;SDS011;1974;48.670;8.994;2023-08-30T06:23:13;5.10;;;2.20;;
3918;SDS011;1974;48.670;8.994;2023-08-30T06:25:41;6.40;;;2.83;;
3918;SDS011;1974;48.670;8.994;2023-08-30T06:28:07;6.00;;;2.30;;
3918;SDS011;1974;48.670;8.994;2023-08-30T06:30:34;3.57;;;2.00;;
3918;SDS011;1974;48.670;8.994;2023-08-30T06:33:03;3.33;;;2.93;;
3918;SDS011;1974;48.670;8.994;2023-08-30T06:35:31;6.43;;;2.30;;
3918;SDS011;1974;48.670;8.994;2023-08-30T06:37:58;2.77;;;2.17;;
3918;SDS011;1974;48.670;8.994;2023-08-30T06:40:25;7.27;;;3.60;;
3918;SDS011;1974;48.670;8.994;2023-08-30T06:42:51;4.17;;;2.50;;
3918;SDS011;1974;48.670;8.994;2023-08-30T06:45:18;2.40;;;2.20;;
3918;SDS011;1974;48.670;8.994;2023-08-30T06:47:45;3.47;;;2.27;;
3918;SDS011;1974;48.670;8.994;2023-08-30T06:50:13;3.00;;;2.00;;
3918;SDS011;1974;48.670;8.994;2023-08-30T06:52:42;2.40;;;2.20;;
3918;SDS011;1974;48.670;8.994;2023-08-30T06:55:09;2.63;;;1.97;;
3918;SDS011;1974;48.670;8.994;2023-08-30T06:57:35;3.37;;;2.13;;
3918;SDS011;1974;48.670;8.994;2023-08-30T07:00:02;3.80;;;2.17;;
3918;SDS011;1974;48.670;8.994;2023-08-30T07:02:32;1.83;;;1.60;;
3918;SDS011;1974;48.670;8.994;2023-08-30T07:05:00;3.77;;;2.00;;
3918;SDS011;1974;48.670;8.994;2023-08-30T07:07:29;2.00;;;1.80;;
3918;SDS011;1974;48.670;8.994;2023-08-30T07:09:57;2.80;;;1.73;;
3918;SDS011;1974;48.670;8.994;2023-08-30T07:12:24;5.83;;;3.17;;
3918;SDS011;1974;48.670;8.994;2023-08-30T07:14:51;2.50;;;2.07;;
3918;SDS011;1974;48.670;8.994;2023-08-30T07:17:18;1.83;;;1.73;;
3918;SDS011;1974;48.670;8.994;2023-08-30T07:19:45;2.93;;;2.27;;
3918;SDS011;1974;48.670;8.994;2023-08-30T07:22:12;3.27;;;2.20;;
3918;SDS011;1974;48.670;8.994;2023-08-30T07:24:41;4.00;;;2.77;;
3918;SDS011;1974;48.670;8.994;2023-08-30T07:27:09;4.60;;;3.00;;
3918;SDS011;1974;48.670;8.994;2023-08-30T07:29:36;2.47;;;2.27;;
3918;SDS011;1974;48.670;8.994;2023-08-30T07:32:03;2.10;;;2.00;;
3918;SDS011;1974;48.670;8.994;2023-08-30T07:34:30;4.73;;;2.10;;
3918;SDS011;1974;48.670;8.994;2023-08-30T07:36:57;2.20;;;2.10;;
3918;SDS011;1974;48.670;8.994;2023-08-30T07:39:24;3.87;;;2.50;;
3918;SDS011;1974;48.670;8.994;2023-08-30T07:41:50;3.83;;;1.97;;
3918;SDS011;1974;48.670;8.994;2023-08-30T07:44:19;5.70;;;2.33;;
3918;SDS011;1974;48.670;8.994;2023-08-30T07:46:45;2.30;;;2.20;;
3918;SDS011;1974;48.670;8.994;2023-08-30T07:49:13;3.63;;;2.50;;
3918;SDS011;1974;48.670;8.994;2023-08-30T07:51:39;2.87;;;2.60;;
3918;SDS011;1974;48.670;8.994;2023-08-30T07:54:06;1.93;;;1.73;;
3918;SDS011;1974;48.670;8.994;2023-08-30T07:56:34;4.10;;;2.60;;
3918;SDS011;1974;48.670;8.994;2023-08-30T07:59:01;3.90;;;2.90;;
3918;SDS011;1974;48.670;8.994;2023-08-30T08:01:29;3.40;;;3.07;;
3918;SDS011;1974;48.670;8.994;2023-08-30T08:03:55;1.43;;;1.33;;
3918;SDS011;1974;48.670;8.994;2023-08-30T08:06:22;3.90;;;2.73;;
3918;SDS011;1974;48.670;8.994;2023-08-30T08:08:49;3.23;;;2.50;;
3918;SDS011;1974;48.670;8.994;2023-08-30T08:11:16;8.03;;;3.63;;
3918;SDS011;1974;48.670;8.994;2023-08-30T08:13:43;2.63;;;2.40;;
3918;SDS011;1974;48.670;8.994;2023-08-30T08:16:10;2.80;;;1.80;;
3918;SDS011;1974;48.670;8.994;2023-08-30T08:18:38;2.43;;;1.93;;
3918;SDS011;1974;48.670;8.994;2023-08-30T08:21:04;4.90;;;3.13;;
3918;SDS011;1974;48.670;8.994;2023-08-30T08:23:31;2.60;;;1.90;;
3918;SDS011;1974;48.670;8.994;2023-08-30T08:25:58;3.17;;;2.20;;
3918;SDS011;1974;48.670;8.994;2023-08-30T08:28:25;3.30;;;2.30;;
3918;SDS011;1974;48.670;8.994;2023-08-30T08:30:52;2.23;;;2.13;;
3918;SDS011;1974;48.670;8.994;2023-08-30T08:33:18;2.37;;;2.13;;
3918;SDS011;1974;48.670;8.994;2023-08-30T08:35:49;2.00;;;1.83;;
3918;SDS011;1974;48.670;8.994;2023-08-30T08:38:15;4.20;;;2.80;;
3918;SDS011;1974;48.670;8.994;2023-08-30T08:40:42;2.63;;;1.93;;
3918;SDS011;1974;48.670;8.994;2023-08-30T08:43:09;2.73;;;2.53;;
3918;SDS011;1974;48.670;8.994;2023-08-30T08:45:37;2.60;;;1.87;;
3918;SDS011;1974;48.670;8.994;2023-08-30T08:48:04;1.90;;;1.80;;
3918;SDS011;1974;48.670;8.994;2023-08-30T08:50:32;3.60;;;2.53;;
3918;SDS011;1974;48.670;8.994;2023-08-30T08:53:01;3.20;;;2.43;;
3918;SDS011;1974;48.670;8.994;2023-08-30T08:55:28;2.90;;;1.67;;
3918;SDS011;1974;48.670;8.994;2023-08-30T08:57:56;3.33;;;2.27;;
3918;SDS011;1974;48.670;8.994;2023-08-30T09:00:24;3.13;;;2.90;;
3918;SDS011;1974;48.670;8.994;2023-08-30T09:02:51;4.37;;;2.37;;
3918;SDS011;1974;48.670;8.994;2023-08-30T09:05:20;3.50;;;2.37;;
3918;SDS011;1974;48.670;8.994;2023-08-30T09:07:47;2.73;;;2.00;;
3918;SDS011;1974;48.670;8.994;2023-08-30T09:10:19;2.40;;;2.20;;
3918;SDS011;1974;48.670;8.994;2023-08-30T09:12:46;2.40;;;2.20;;
3918;SDS011;1974;48.670;8.994;2023-08-30T09:15:13;2.80;;;2.23;;
3918;SDS011;1974;48.670;8.994;2023-08-30T09:17:40;2.90;;;2.67;;
3918;SDS011;1974;48.670;8.994;2023-08-30T09:20:08;3.70;;;2.50;;
3918;SDS011;1974;48.670;8.994;2023-08-30T09:22:36;2.50;;;2.23;;
3918;SDS011;1974;48.670;8.994;2023-08-30T09:25:03;4.43;;;2.37;;
3918;SDS011;1974;48.670;8.994;2023-08-30T09:27:33;2.20;;;2.00;;
3918;SDS011;1974;48.670;8.994;2023-08-30T09:30:00;3.57;;;2.00;;
3918;SDS011;1974;48.670;8.994;2023-08-30T09:32:26;2.00;;;1.77;;
3918;SDS011;1974;48.670;8.994;2023-08-30T09:34:53;5.10;;;2.33;;
3918;SDS011;1974;48.670;8.994;2023-08-30T09:37:20;2.30;;;2.00;;
3918;SDS011;1974;48.670;8.994;2023-08-30T09:39:50;2.13;;;1.87;;
3918;SDS011;1974;48.670;8.994;2023-08-30T09:42:17;2.13;;;1.93;;
3918;SDS011;1974;48.670;8.994;2023-08-30T09:44:45;2.93;;;1.73;;
3918;SDS011;1974;48.670;8.994;2023-08-30T09:47:12;1.50;;;1.40;;
3918;SDS011;1974;48.670;8.994;2023-08-30T09:49:42;7.60;;;1.67;;
3918;SDS011;1974;48.670;8.994;2023-08-30T09:52:10;1.43;;;1.33;;
3918;SDS011;1974;48.670;8.994;2023-08-30T09:54:41;1.60;;;1.50;;
3918;SDS011;1974;48.670;8.994;2023-08-30T09:57:09;2.80;;;2.07;;
3918;SDS011;1974;48.670;8.994;2023-08-30T09:59:36;2.93;;;1.63;;
3918;SDS011;1974;48.670;8.994;2023-08-30T10:02:06;1.50;;;1.30;;
3918;SDS011;1974;48.670;8.994;2023-08-30T10:04:35;1.87;;;1.77;;
3918;SDS011;1974;48.670;8.994;2023-08-30T10:07:05;2.63;;;1.60;;
3918;SDS011;1974;48.670;8.994;2023-08-30T10:09:33;1.43;;;1.33;;
3918;SDS011;1974;48.670;8.994;2023-08-30T10:12:01;3.00;;;2.27;;
3918;SDS011;1974;48.670;8.994;2023-08-30T10:14:29;1.90;;;1.80;;
3918;SDS011;1974;48.670;8.994;2023-08-30T10:16:58;1.27;;;1.20;;
3918;SDS011;1974;48.670;8.994;2023-08-30T10:19:30;2.00;;;1.90;;
3918;SDS011;1974;48.670;8.994;2023-08-30T10:22:00;1.73;;;1.63;;
3918;SDS011;1974;48.670;8.994;2023-08-30T10:24:29;1.20;;;1.10;;
3918;SDS011;1974;48.670;8.994;2023-08-30T10:26:58;2.10;;;1.30;;
3918;SDS011;1974;48.670;8.994;2023-08-30T10:29:28;1.70;;;1.60;;
3918;SDS011;1974;48.670;8.994;2023-08-30T10:32:01;1.97;;;1.60;;
3918;SDS011;1974;48.670;8.994;2023-08-30T10:34:32;2.40;;;1.30;;
3918;SDS011;1974;48.670;8.994;2023-08-30T10:37:01;4.97;;;1.63;;
3918;SDS011;1974;48.670;8.994;2023-08-30T10:39:33;1.53;;;1.07;;
3918;SDS011;1974;48.670;8.994;2023-08-30T10:42:06;1.20;;;1.20;;
3918;SDS011;1974;48.670;8.994;2023-08-30T10:44:34;2.00;;;1.90;;
3918;SDS011;1974;48.670;8.994;2023-08-30T10:47:17;1.30;;;1.20;;
3918;SDS011;1974;48.670;8.994;2023-08-30T10:49:47;1.50;;;1.40;;
3918;SDS011;1974;48.670;8.994;2023-08-30T10:52:14;1.93;;;1.83;;
3918;SDS011;1974;48.670;8.994;2023-08-30T10:54:41;1.87;;;1.53;;
3918;SDS011;1974;48.670;8.994;2023-08-30T10:57:12;2.10;;;1.90;;
3918;SDS011;1974;48.670;8.994;2023-08-30T10:59:40;1.90;;;1.80;;
3918;SDS011;1974;48.670;8.994;2023-08-30T11:02:13;1.87;;;1.63;;
3918;SDS011;1974;48.670;8.994;2023-08-30T11:04:41;1.40;;;1.30;;
3918;SDS011;1974;48.670;8.994;2023-08-30T11:07:09;2.00;;;1.70;;
3918;SDS011;1974;48.670;8.994;2023-08-30T11:09:37;1.03;;;0.93;;
3918;SDS011;1974;48.670;8.994;2023-08-30T11:12:06;1.47;;;0.97;;
3918;SDS011;1974;48.670;8.994;2023-08-30T11:14:33;1.40;;;1.30;;
3918;SDS011;1974;48.670;8.994;2023-08-30T11:16:59;1.20;;;1.10;;
3918;SDS011;1974;48.670;8.994;2023-08-30T11:19:28;1.17;;;1.07;;
3918;SDS011;1974;48.670;8.994;2023-08-30T11:21:56;2.47;;;1.70;;
3918;SDS011;1974;48.670;8.994;2023-08-30T11:24:24;1.43;;;1.33;;
3918;SDS011;1974;48.670;8.994;2023-08-30T11:26:54;1.37;;;1.23;;
3918;SDS011;1974;48.670;8.994;2023-08-30T11:29:21;1.30;;;1.20;;
3918;SDS011;1974;48.670;8.994;2023-08-30T11:31:48;0.83;;;0.83;;
3918;SDS011;1974;48.670;8.994;2023-08-30T11:34:15;0.90;;;0.90;;
3918;SDS011;1974;48.670;8.994;2023-08-30T11:36:46;0.87;;;0.87;;
3918;SDS011;1974;48.670;8.994;2023-08-30T11:39:13;1.30;;;0.80;;
3918;SDS011;1974;48.670;8.994;2023-08-30T11:41:41;0.87;;;0.87;;
3918;SDS011;1974;48.670;8.994;2023-08-30T11:44:08;1.83;;;0.73;;
3918;SDS011;1974;48.670;8.994;2023-08-30T11:46:35;0.83;;;0.83;;
3918;SDS011;1974;48.670;8.994;2023-08-30T11:49:02;1.27;;;1.07;;
3918;SDS011;1974;48.670;8.994;2023-08-30T11:51:29;4.07;;;1.50;;
3918;SDS011;1974;48.670;8.994;2023-08-30T11:53:57;1.00;;;0.90;;
3918;SDS011;1974;48.670;8.994;2023-08-30T11:56:27;1.93;;;1.20;;
3918;SDS011;1974;48.670;8.994;2023-08-30T11:58:55;1.30;;;1.20;;
3918;SDS011;1974;48.670;8.994;2023-08-30T12:01:22;1.67;;;1.57;;
3918;SDS011;1974;48.670;8.994;2023-08-30T12:03:49;2.83;;;1.43;;
3918;SDS011;1974;48.670;8.994;2023-08-30T12:06:16;1.57;;;1.47;;
3918;SDS011;1974;48.670;8.994;2023-08-30T12:08:43;2.27;;;2.07;;
3918;SDS011;1974;48.670;8.994;2023-08-30T12:11:17;1.57;;;1.37;;
3918;SDS011;1974;48.670;8.994;2023-08-30T12:13:45;1.20;;;1.13;;
3918;SDS011;1974;48.670;8.994;2023-08-30T12:16:16;2.10;;;1.83;;
3918;SDS011;1974;48.670;8.994;2023-08-30T12:18:45;4.73;;;1.80;;
3918;SDS011;1974;48.670;8.994;2023-08-30T12:21:13;1.37;;;1.17;;
3918;SDS011;1974;48.670;8.994;2023-08-30T12:23:40;1.50;;;1.40;;
3918;SDS011;1974;48.670;8.994;2023-08-30T12:26:07;2.60;;;1.40;;
3918;SDS011;1974;48.670;8.994;2023-08-30T12:28:35;1.73;;;1.63;;
3918;SDS011;1974;48.670;8.994;2023-08-30T12:31:03;1.30;;;1.20;;
3918;SDS011;1974;48.670;8.994;2023-08-30T12:33:31;3.23;;;1.83;;
3918;SDS011;1974;48.670;8.994;2023-08-30T12:35:59;2.80;;;1.63;;
3918;SDS011;1974;48.670;8.994;2023-08-30T12:38:26;1.90;;;1.80;;
3918;SDS011;1974;48.670;8.994;2023-08-30T12:40:54;1.37;;;1.27;;
3918;SDS011;1974;48.670;8.994;2023-08-30T12:43:21;1.20;;;1.10;;
3918;SDS011;1974;48.670;8.994;2023-08-30T12:45:49;1.83;;;1.23;;
3918;SDS011;1974;48.670;8.994;2023-08-30T12:48:17;3.60;;;1.83;;
3918;SDS011;1974;48.670;8.994;2023-08-30T12:50:46;1.60;;;1.03;;
3918;SDS011;1974;48.670;8.994;2023-08-30T12:53:14;0.93;;;0.93;;
3918;SDS011;1974;48.670;8.994;2023-08-30T12:55:42;2.00;;;1.03;;
3918;SDS011;1974;48.670;8.994;2023-08-30T12:58:09;1.27;;;1.00;;
3918;SDS011;1974;48.670;8.994;2023-08-30T13:00:39;4.30;;;1.50;;
3918;SDS011;1974;48.670;8.994;2023-08-30T13:03:05;1.23;;;1.13;;
3918;SDS011;1974;48.670;8.994;2023-08-30T13:05:32;1.67;;;1.57;;
3918;SDS011;1974;48.670;8.994;2023-08-30T13:08:02;1.30;;;1.20;;
3918;SDS011;1974;48.670;8.994;2023-08-30T13:10:29;1.47;;;1.37;;
3918;SDS011;1974;48.670;8.994;2023-08-30T13:12:56;0.70;;;0.70;;
3918;SDS011;1974;48.670;8.994;2023-08-30T13:15:23;0.60;;;0.60;;
3918;SDS011;1974;48.670;8.994;2023-08-30T13:17:50;1.00;;;0.90;;
3918;SDS011;1974;48.670;8.994;2023-08-30T13:20:17;1.40;;;1.30;;
3918;SDS011;1974;48.670;8.994;2023-08-30T13:22:44;1.53;;;1.10;;
3918;SDS011;1974;48.670;8.994;2023-08-30T13:25:13;1.30;;;1.10;;
3918;SDS011;1974;48.670;8.994;2023-08-30T13:27:40;1.57;;;0.90;;
3918;SDS011;1974;48.670;8.994;2023-08-30T13:30:07;1.20;;;1.10;;
3918;SDS011;1974;48.670;8.994;2023-08-30T13:32:33;5.33;;;1.37;;
3918;SDS011;1974;48.670;8.994;2023-08-30T13:35:00;2.07;;;1.23;;
3918;SDS011;1974;48.670;8.994;2023-08-30T13:37:27;1.43;;;0.90;;
3918;SDS011;1974;48.670;8.994;2023-08-30T13:39:54;1.07;;;0.97;;
3918;SDS011;1974;48.670;8.994;2023-08-30T13:42:22;1.33;;;1.23;;
3918;SDS011;1974;48.670;8.994;2023-08-30T13:44:52;0.90;;;0.90;;
3918;SDS011;1974;48.670;8.994;2023-08-30T13:47:19;1.17;;;1.10;;
3918;SDS011;1974;48.670;8.994;2023-08-30T13:49:46;1.43;;;1.33;;
3918;SDS011;1974;48.670;8.994;2023-08-30T13:52:13;1.70;;;1.20;;
3918;SDS011;1974;48.670;8.994;2023-08-30T13:54:40;1.10;;;1.10;;
3918;SDS011;1974;48.670;8.994;2023-08-30T13:57:07;2.40;;;1.30;;
3918;SDS011;1974;48.670;8.994;2023-08-30T13:59:35;0.93;;;0.90;;
3918;SDS011;1974;48.670;8.994;2023-08-30T14:02:02;1.43;;;1.20;;
3918;SDS011;1974;48.670;8.994;2023-08-30T14:04:29;0.87;;;0.80;;
3918;SDS011;1974;48.670;8.994;2023-08-30T14:06:58;1.13;;;0.90;;
3918;SDS011;1974;48.670;8.994;2023-08-30T14:09:25;1.00;;;0.90;;
3918;SDS011;1974;48.670;8.994;2023-08-30T14:11:51;2.10;;;1.40;;
3918;SDS011;1974;48.670;8.994;2023-08-30T14:14:19;1.00;;;1.00;;
3918;SDS011;1974;48.670;8.994;2023-08-30T14:16:48;1.07;;;1.07;;
3918;SDS011;1974;48.670;8.994;2023-08-30T14:19:15;1.30;;;1.20;;
3918;SDS011;1974;48.670;8.994;2023-08-30T14:21:42;1.27;;;1.20;;
3918;SDS011;1974;48.670;8.994;2023-08-30T14:24:09;1.23;;;1.20;;
3918;SDS011;1974;48.670;8.994;2023-08-30T14:26:36;1.17;;;1.10;;
3918;SDS011;1974;48.670;8.994;2023-08-30T14:29:03;0.93;;;0.93;;
3918;SDS011;1974;48.670;8.994;2023-08-30T14:31:30;1.50;;;1.40;;
3918;SDS011;1974;48.670;8.994;2023-08-30T14:33:58;0.83;;;0.83;;
3918;SDS011;1974;48.670;8.994;2023-08-30T14:36:25;1.40;;;1.30;;
3918;SDS011;1974;48.670;8.994;2023-08-30T14:38:51;1.53;;;1.37;;
3918;SDS011;1974;48.670;8.994;2023-08-30T14:41:18;1.27;;;1.17;;
3918;SDS011;1974;48.670;8.994;2023-08-30T14:43:45;2.07;;;1.50;;
3918;SDS011;1974;48.670;8.994;2023-08-30T14:46:12;1.53;;;1.43;;
3918;SDS011;1974;48.670;8.994;2023-08-30T14:48:40;1.27;;;1.17;;
3918;SDS011;1974;48.670;8.994;2023-08-30T14:51:08;1.10;;;1.10;;
3918;SDS011;1974;48.670;8.994;2023-08-30T14:53:35;1.10;;;1.00;;
3918;SDS011;1974;48.670;8.994;2023-08-30T14:56:02;2.63;;;1.23;;
3918;SDS011;1974;48.670;8.994;2023-08-30T14:58:32;0.80;;;0.80;;
3918;SDS011;1974;48.670;8.994;2023-08-30T15:01:00;1.13;;;1.03;;
3918;SDS011;1974;48.670;8.994;2023-08-30T15:03:27;1.20;;;1.10;;
3918;SDS011;1974;48.670;8.994;2023-08-30T15:05:54;1.70;;;1.33;;
3918;SDS011;1974;48.670;8.994;2023-08-30T15:08:23;1.77;;;1.40;;
3918;SDS011;1974;48.670;8.994;2023-08-30T15:10:50;0.80;;;0.80;;
3918;SDS011;1974;48.670;8.994;2023-08-30T15:13:17;1.20;;;1.10;;
3918;SDS011;1974;48.670;8.994;2023-08-30T15:15:44;1.37;;;1.37;;
3918;SDS011;1974;48.670;8.994;2023-08-30T15:18:11;1.43;;;1.10;;